Banja Luka, Bosnia and Herzegovina
Current Conditions -  °F | °C
As of 7:00 PM on Sunday 21 Dec 2014 (Local Time) from LQBK Reporting Station
Clear Clear  
Wind Chill: 32°   Ceiling: Unl
Heat Index: 36°   Visibility: 6mi
Dew Point: 28°   Wind: 5mph
Humidity: 75%   Direction: 170°S
Pressure: 30.45"   Gusts: NA
Location:  44.78°N, 17.19°E
Report Text: LQBK 211700Z 17004KT CAVOK 02/M02 Q1031 NOSIG
Loading
Personal Weather Stations






























Interactive Weather Map New forecast layout! Learn more

10-Day Weather Forecast

Advertisements
Track Severe Weather on mobile